New Nada — 3ELP9 — position and weather

sailwx.info

Track history (hours):
 
Tides and Currents Weather Stations Pressure Air Temp Water Temp Dewpoint Dewpoint Depression Visibility Wind Speed Wind Dir Waves Ship Positions

New Nada

Last reported at 2017-Apr-03 23:04 UTC. Time now 2017-Apr-26 04:09 UTC.
Position N 35°36' W 132°09'.
Warning: this ship's position is 22 days out of date.

Length 180 m; beam 32.2 m.

Type: Cargo ship. MMSI: 356005000.

Date/timePositionNaut miles runAvg speedWind from/ knotsBaromVisibWave heightAir tempDewpointWater temp
2017-Apr-03 23:04N 35°36' W 132°09'6216.5
2017-Apr-03 19:20N 35°48' W 130°54'1016.0
2017-Apr-03 18:43N 35°50' W 130°43'416.0
2017-Apr-03 18:27N 35°51' W 130°37'8216.0
2017-Apr-03 13:18N 36°11' W 128°59'4115.5
2017-Apr-03 10:40N 36°21' W 128°10'315.0
2017-Apr-03 10:30N 36°22' W 128°07'2815.3
2017-Apr-03 08:39N 36°31' W 127°33'514.2
2017-Apr-03 08:19N 36°32' W 127°28'714.3
2017-Apr-03 07:48N 36°34' W 127°19'414.1
2017-Apr-03 07:29N 36°36' W 127°14'714.1
2017-Apr-03 07:00N 36°38' W 127°06'714.0
2017-Apr-03 06:31N 36°40' W 126°57'1813.8
2017-Apr-03 05:12N 36°45' W 126°36'614.1
2017-Apr-03 04:48N 36°47' W 126°29'413.8
2017-Apr-03 04:30N 36°48' W 126°24'714.0
2017-Apr-03 04:00N 36°50' W 126°16'713.4
2017-Apr-03 03:30N 36°51' W 126°08'1614.0
2017-Apr-03 02:22N 36°59' W 125°50'914.3
2017-Apr-03 01:43N 37°04' W 125°41'313.9
2017-Apr-03 01:29N 37°06' W 125°38'1013.9
2017-Apr-03 00:48N 37°11' W 125°27'513.8
2017-Apr-03 00:28N 37°13' W 125°22'612.9
2017-Apr-03 00:00N 37°14' W 125°15'712.8
2017-Apr-02 23:28N 37°15' W 125°06'612.9
2017-Apr-02 23:00N 37°15' W 124°58'913.3
2017-Apr-02 22:20N 37°16' W 124°47'2513.1
2017-Apr-02 20:27N 37°19' W 124°16'3413.6
2017-Apr-02 17:58N 37°27' W 123°35'713.6
2017-Apr-02 17:29N 37°29' W 123°27'813.7
2017-Apr-02 16:53N 37°31' W 123°17'513.8
2017-Apr-02 16:30N 37°32' W 123°11'713.5
2017-Apr-02 16:00N 37°35' W 123°03'714.8
2017-Apr-02 15:30N 37°39' W 122°55'714.6
2017-Apr-02 15:00N 37°42' W 122°47'1110.9
2017-Apr-02 14:00N 37°47' W 122°35'714.0
2017-Apr-02 13:31N 37°50' W 122°27'5 9.4
2017-Apr-02 13:00N 37°55' W 122°27'713.0
2017-Apr-02 12:30N 38°01' W 122°24'612.3
2017-Apr-02 12:00N 38°03' W 122°17'610.7
2017-Apr-02 11:30N 38°03' W 122°10'2 0.4
2017-Apr-02 06:31N 38°02' W 122°08'0 0.0
2017-Apr-02 06:13N 38°02' W 122°08'0 0.0
2017-Apr-02 05:55N 38°02' W 122°08'0 0.0
2017-Apr-02 05:25N 38°02' W 122°08'0 0.0
2017-Apr-02 04:55N 38°02' W 122°08'0 0.0
2017-Apr-02 04:25N 38°02' W 122°08'0 0.0
2017-Apr-02 03:55N 38°02' W 122°08'0 0.0
2017-Apr-02 03:19N 38°02' W 122°08'0 0.0
2017-Apr-02 02:49N 38°02' W 122°08'0 0.0
2017-Apr-02 02:25N 38°02' W 122°08'0 0.0
2017-Apr-02 01:55N 38°02' W 122°08'0 0.0
2017-Apr-01 23:43N 38°02' W 122°08'0 0.0
2017-Apr-01 23:30N 38°02' W 122°08'0 0.9
2017-Apr-01 23:00N 38°02' W 122°09'5 9.9
2017-Apr-01 22:30N 38°04' W 122°14'713.9
2017-Apr-01 22:00N 38°02' W 122°23'713.8
2017-Apr-01 21:30N 37°55' W 122°25'611.8
2017-Apr-01 21:00N 37°49' W 122°25'510.8
2017-Apr-01 20:30N 37°48' W 122°32'612.3
2017-Apr-01 20:00N 37°46' W 122°39'4 8.5
2017-Apr-01 19:30N 37°42' W 122°40'510.8
2017-Apr-01 19:00N 37°36' W 122°40'510.8
2017-Apr-01 18:30N 37°31' W 122°40'1010.2
2017-Apr-01 17:30N 37°20' W 122°40'5 9.9
2017-Apr-01 17:00N 37°16' W 122°39'5 9.7
2017-Apr-01 16:30N 37°11' W 122°37'3 5.1
2017-Apr-01 16:00N 37°08' W 122°37'1 1.8
2017-Apr-01 15:30N 37°09' W 122°38'1 2.3
2017-Apr-01 15:00N 37°10' W 122°39'1 1.3
2017-Apr-01 14:00N 37°09' W 122°39'4 7.8
2017-Apr-01 13:30N 37°05' W 122°38'4 7.4
2017-Apr-01 13:00N 37°01' W 122°36'4 7.7
2017-Apr-01 12:30N 36°58' W 122°35'4 8.1
2017-Apr-01 12:00N 36°54' W 122°33'4 7.4
2017-Apr-01 11:30N 36°50' W 122°32'4 8.4
2017-Apr-01 11:00N 36°46' W 122°30'5 9.2
2017-Apr-01 10:30N 36°42' W 122°28'5 9.2
2017-Apr-01 10:00N 36°38' W 122°25'4 8.8
2017-Apr-01 09:30N 36°34' W 122°23'4 8.9
2017-Apr-01 09:00N 36°30' W 122°20'4 8.7
2017-Apr-01 08:30N 36°26' W 122°18'4 8.6
2017-Apr-01 08:00N 36°23' W 122°15'4 8.2
2017-Apr-01 07:30N 36°19' W 122°13'4 8.2
2017-Apr-01 07:00N 36°15' W 122°11'4 8.9
2017-Apr-01 06:30N 36°11' W 122°08'4 7.7
2017-Apr-01 06:00N 36°08' W 122°06'4 7.4
2017-Apr-01 05:30N 36°05' W 122°03'4 7.5
2017-Apr-01 05:00N 36°02' W 122°01'4 7.8
2017-Apr-01 04:30N 35°58' W 121°59'4 8.1
2017-Apr-01 04:00N 35°55' W 121°56'4 8.0
2017-Apr-01 03:30N 35°51' W 121°54'5 9.4
2017-Apr-01 03:00N 35°47' W 121°50'5 9.8
2017-Apr-01 02:30N 35°43' W 121°47'5 9.7
2017-Apr-01 02:00N 35°39' W 121°44'510.0
2017-Apr-01 01:30N 35°35' W 121°41'510.3
2017-Apr-01 01:00N 35°30' W 121°38'5 9.9
2017-Apr-01 00:30N 35°26' W 121°35'510.2
2017-Apr-01 00:00N 35°22' W 121°32'510.6
2017-Mar-31 23:30N 35°17' W 121°28'510.2
2017-Mar-31 23:00N 35°13' W 121°25'510.4
2017-Mar-31 22:30N 35°08' W 121°22'510.3
2017-Mar-31 22:00N 35°04' W 121°19'510.5
2017-Mar-31 21:30N 34°59' W 121°15'510.5
2017-Mar-31 21:00N 34°55' W 121°12'510.2
2017-Mar-31 20:30N 34°50' W 121°09'510.4
2017-Mar-31 20:00N 34°46' W 121°06'510.2
2017-Mar-31 19:30N 34°41' W 121°03'510.0
2017-Mar-31 19:00N 34°37' W 120°60'5 9.5
2017-Mar-31 18:29N 34°33' W 120°56'4 9.1
2017-Mar-31 18:00N 34°29' W 120°54'4 8.4
2017-Mar-31 17:30N 34°26' W 120°50'4 8.4
2017-Mar-31 16:58N 34°25' W 120°45'5 9.5
2017-Mar-31 16:28N 34°23' W 120°39'510.8
2017-Mar-31 16:00N 34°22' W 120°34'5 9.5
2017-Mar-31 15:30N 34°21' W 120°28'5 9.6
2017-Mar-31 15:00N 34°20' W 120°22'9 9.3
2017-Mar-31 14:00N 34°17' W 120°12'5 9.0
2017-Mar-31 13:28N 34°16' W 120°06'4 9.5
2017-Mar-31 13:00N 34°15' W 120°01'5 9.8
2017-Mar-31 12:30N 34°13' W 119°55'5 9.4
2017-Mar-31 12:00N 34°12' W 119°50'5 9.5
2017-Mar-31 11:30N 34°11' W 119°44'5 9.3
2017-Mar-31 10:59N 34°09' W 119°38'6 9.2
2017-Mar-31 10:20N 34°08' W 119°31'3 9.3
2017-Mar-31 10:00N 34°07' W 119°28'5 9.2
2017-Mar-31 09:27N 34°06' W 119°22'4 9.1
2017-Mar-31 08:59N 34°05' W 119°17'7 8.8
2017-Mar-31 08:12N 34°01' W 119°10'2 8.7
2017-Mar-31 08:00N 34°00' W 119°08'5 9.4
2017-Mar-31 07:29N 33°58' W 119°03'5 9.5
2017-Mar-31 06:56N 33°55' W 118°57'6 9.8
2017-Mar-31 06:21N 33°53' W 118°51'4 9.2
2017-Mar-31 05:55N 33°51' W 118°47'4 9.7
2017-Mar-31 05:29N 33°49' W 118°43'510.1
2017-Mar-31 05:00N 33°46' W 118°37'410.1
2017-Mar-31 04:33N 33°44' W 118°33'10 9.7
2017-Mar-31 03:33N 33°39' W 118°23'8 8.2
2017-Mar-31 02:33N 33°39' W 118°13'7 1.8
2017-Mar-30 22:33N 33°46' W 118°13'0 0.0
2017-Mar-30 21:30N 33°46' W 118°13'0 0.0
2017-Mar-30 20:30N 33°46' W 118°13'0 0.0
2017-Mar-30 19:33N 33°46' W 118°13'0 0.0
2017-Mar-30 18:30N 33°46' W 118°13'0 0.0
2017-Mar-30 17:33N 33°46' W 118°13'0 0.0
2017-Mar-30 16:33N 33°46' W 118°13'0 0.0
2017-Mar-30 15:18N 33°46' W 118°13'0 0.0
2017-Mar-30 14:33N 33°46' W 118°13'0 0.1
2017-Mar-30 13:33N 33°46' W 118°13'3 3.3
2017-Mar-30 12:34N 33°44' W 118°11'7 7.2
2017-Mar-30 11:33N 33°37' W 118°14'6 6.4
2017-Mar-30 10:33N 33°37' W 118°22'7 7.0
2017-Mar-30 09:33N 33°40' W 118°29'8 7.8
2017-Mar-30 08:33N 33°44' W 118°37'9 9.1
2017-Mar-30 07:33N 33°49' W 118°47'9 8.9
2017-Mar-30 06:33N 33°53' W 118°56'9 9.0
2017-Mar-30 05:33N 33°57' W 119°06'9 9.3
2017-Mar-30 04:33N 34°02' W 119°15'9 9.6
2017-Mar-30 03:33N 34°05' W 119°26'9 9.4
2017-Mar-30 02:33N 34°07' W 119°37'9 9.3
2017-Mar-30 01:33N 34°10' W 119°48'10 9.7
2017-Mar-30 00:31N 34°12' W 119°60'10 9.7
2017-Mar-29 23:31N 34°15' W 120°11'8 8.8
2017-Mar-29 22:33N 34°18' W 120°21'9 8.9
2017-Mar-29 21:33N 34°20' W 120°31'1211.5
2017-Mar-29 20:33N 34°23' W 120°45'1312.4
2017-Mar-29 19:33N 34°24' W 120°60'1312.8
2017-Mar-29 18:33N 34°21' W 121°15'6 5.6
2017-Mar-29 17:33N 34°20' W 121°21'1 1.3
2017-Mar-29 16:33N 34°21' W 121°23'2 1.8
2017-Mar-29 15:33N 34°22' W 121°24'4 3.6
2017-Mar-29 14:33N 34°24' W 121°28'1211.3
2017-Mar-29 13:28N 34°25' W 121°43'1111.8
2017-Mar-29 12:33N 34°25' W 121°56'1211.9
2017-Mar-29 11:33N 34°25' W 122°10'4711.9
2017-Mar-29 07:33N 34°25' W 123°08'1212.3
2017-Mar-29 06:33N 34°25' W 123°23'1212.5
2017-Mar-29 05:33N 34°25' W 123°38'1312.8
2017-Mar-29 04:33N 34°26' W 123°53'1312.9
2017-Mar-29 03:33N 34°28' W 124°09'1312.6
2017-Mar-29 02:33N 34°30' W 124°24'1312.5
2017-Mar-29 01:33N 34°32' W 124°39'1312.7
2017-Mar-29 00:33N 34°34' W 124°54'1312.8
2017-Mar-28 23:33N 34°37' W 125°09'1313.0
2017-Mar-28 22:33N 34°39' W 125°25'1412.7
2017-Mar-28 21:26N 34°41' W 125°42'1112.5
2017-Mar-28 20:33N 34°43' W 125°55'1312.9
2017-Mar-28 19:33N 34°45' W 126°11'1414.1
2017-Mar-28 18:33N 34°47' W 126°28'1514.2
2017-Mar-28 17:31N 34°50' W 126°45'  
Track history (hours):
 
Tides and Currents Weather Stations Pressure Air Temp Water Temp Dewpoint Dewpoint Depression Visibility Wind Speed Wind Dir Waves Ship Positions

New Nada

Last reported at 2017-Apr-03 23:04 UTC. Time now 2017-Apr-26 04:09 UTC.
Position N 35°36' W 132°09'.
Warning: this ship's position is 22 days out of date.

Length 180 m; beam 32.2 m.

Type: Cargo ship. MMSI: 356005000.

Date/timePositionNaut miles runAvg speedWind from/ knotsBaromVisibWave heightAir tempDewpointWater temp
2017-Apr-03 23:04N 35°36' W 132°09'6216.5
2017-Apr-03 19:20N 35°48' W 130°54'1016.0
2017-Apr-03 18:43N 35°50' W 130°43'416.0
2017-Apr-03 18:27N 35°51' W 130°37'8216.0
2017-Apr-03 13:18N 36°11' W 128°59'4115.5
2017-Apr-03 10:40N 36°21' W 128°10'315.0
2017-Apr-03 10:30N 36°22' W 128°07'2815.3
2017-Apr-03 08:39N 36°31' W 127°33'514.2
2017-Apr-03 08:19N 36°32' W 127°28'714.3
2017-Apr-03 07:48N 36°34' W 127°19'414.1
2017-Apr-03 07:29N 36°36' W 127°14'714.1
2017-Apr-03 07:00N 36°38' W 127°06'714.0
2017-Apr-03 06:31N 36°40' W 126°57'1813.8
2017-Apr-03 05:12N 36°45' W 126°36'614.1
2017-Apr-03 04:48N 36°47' W 126°29'413.8
2017-Apr-03 04:30N 36°48' W 126°24'714.0
2017-Apr-03 04:00N 36°50' W 126°16'713.4
2017-Apr-03 03:30N 36°51' W 126°08'1614.0
2017-Apr-03 02:22N 36°59' W 125°50'914.3
2017-Apr-03 01:43N 37°04' W 125°41'313.9
2017-Apr-03 01:29N 37°06' W 125°38'1013.9
2017-Apr-03 00:48N 37°11' W 125°27'513.8
2017-Apr-03 00:28N 37°13' W 125°22'612.9
2017-Apr-03 00:00N 37°14' W 125°15'712.8
2017-Apr-02 23:28N 37°15' W 125°06'612.9
2017-Apr-02 23:00N 37°15' W 124°58'913.3
2017-Apr-02 22:20N 37°16' W 124°47'2513.1
2017-Apr-02 20:27N 37°19' W 124°16'3413.6
2017-Apr-02 17:58N 37°27' W 123°35'713.6
2017-Apr-02 17:29N 37°29' W 123°27'813.7
2017-Apr-02 16:53N 37°31' W 123°17'513.8
2017-Apr-02 16:30N 37°32' W 123°11'713.5
2017-Apr-02 16:00N 37°35' W 123°03'714.8
2017-Apr-02 15:30N 37°39' W 122°55'714.6
2017-Apr-02 15:00N 37°42' W 122°47'1110.9
2017-Apr-02 14:00N 37°47' W 122°35'714.0
2017-Apr-02 13:31N 37°50' W 122°27'5 9.4
2017-Apr-02 13:00N 37°55' W 122°27'713.0
2017-Apr-02 12:30N 38°01' W 122°24'612.3
2017-Apr-02 12:00N 38°03' W 122°17'610.7
2017-Apr-02 11:30N 38°03' W 122°10'2 0.4
2017-Apr-02 06:31N 38°02' W 122°08'0 0.0
2017-Apr-02 06:13N 38°02' W 122°08'0 0.0
2017-Apr-02 05:55N 38°02' W 122°08'0 0.0
2017-Apr-02 05:25N 38°02' W 122°08'0 0.0
2017-Apr-02 04:55N 38°02' W 122°08'0 0.0
2017-Apr-02 04:25N 38°02' W 122°08'0 0.0
2017-Apr-02 03:55N 38°02' W 122°08'0 0.0
2017-Apr-02 03:19N 38°02' W 122°08'0 0.0
2017-Apr-02 02:49N 38°02' W 122°08'0 0.0
2017-Apr-02 02:25N 38°02' W 122°08'0 0.0
2017-Apr-02 01:55N 38°02' W 122°08'0 0.0
2017-Apr-01 23:43N 38°02' W 122°08'0 0.0
2017-Apr-01 23:30N 38°02' W 122°08'0 0.9
2017-Apr-01 23:00N 38°02' W 122°09'5 9.9
2017-Apr-01 22:30N 38°04' W 122°14'713.9
2017-Apr-01 22:00N 38°02' W 122°23'713.8
2017-Apr-01 21:30N 37°55' W 122°25'611.8
2017-Apr-01 21:00N 37°49' W 122°25'510.8
2017-Apr-01 20:30N 37°48' W 122°32'612.3
2017-Apr-01 20:00N 37°46' W 122°39'4 8.5
2017-Apr-01 19:30N 37°42' W 122°40'510.8
2017-Apr-01 19:00N 37°36' W 122°40'510.8
2017-Apr-01 18:30N 37°31' W 122°40'1010.2
2017-Apr-01 17:30N 37°20' W 122°40'5 9.9
2017-Apr-01 17:00N 37°16' W 122°39'5 9.7
2017-Apr-01 16:30N 37°11' W 122°37'3 5.1
2017-Apr-01 16:00N 37°08' W 122°37'1 1.8
2017-Apr-01 15:30N 37°09' W 122°38'1 2.3
2017-Apr-01 15:00N 37°10' W 122°39'1 1.3
2017-Apr-01 14:00N 37°09' W 122°39'4 7.8
2017-Apr-01 13:30N 37°05' W 122°38'4 7.4
2017-Apr-01 13:00N 37°01' W 122°36'4 7.7
2017-Apr-01 12:30N 36°58' W 122°35'4 8.1
2017-Apr-01 12:00N 36°54' W 122°33'4 7.4
2017-Apr-01 11:30N 36°50' W 122°32'4 8.4
2017-Apr-01 11:00N 36°46' W 122°30'5 9.2
2017-Apr-01 10:30N 36°42' W 122°28'5 9.2
2017-Apr-01 10:00N 36°38' W 122°25'4 8.8
2017-Apr-01 09:30N 36°34' W 122°23'4 8.9
2017-Apr-01 09:00N 36°30' W 122°20'4 8.7
2017-Apr-01 08:30N 36°26' W 122°18'4 8.6
2017-Apr-01 08:00N 36°23' W 122°15'4 8.2
2017-Apr-01 07:30N 36°19' W 122°13'4 8.2
2017-Apr-01 07:00N 36°15' W 122°11'4 8.9
2017-Apr-01 06:30N 36°11' W 122°08'4 7.7
2017-Apr-01 06:00N 36°08' W 122°06'4 7.4
2017-Apr-01 05:30N 36°05' W 122°03'4 7.5
2017-Apr-01 05:00N 36°02' W 122°01'4 7.8
2017-Apr-01 04:30N 35°58' W 121°59'4 8.1
2017-Apr-01 04:00N 35°55' W 121°56'4 8.0
2017-Apr-01 03:30N 35°51' W 121°54'5 9.4
2017-Apr-01 03:00N 35°47' W 121°50'5 9.8
2017-Apr-01 02:30N 35°43' W 121°47'5 9.7
2017-Apr-01 02:00N 35°39' W 121°44'510.0
2017-Apr-01 01:30N 35°35' W 121°41'510.3
2017-Apr-01 01:00N 35°30' W 121°38'5 9.9
2017-Apr-01 00:30N 35°26' W 121°35'510.2
2017-Apr-01 00:00N 35°22' W 121°32'510.6
2017-Mar-31 23:30N 35°17' W 121°28'510.2
2017-Mar-31 23:00N 35°13' W 121°25'510.4
2017-Mar-31 22:30N 35°08' W 121°22'510.3
2017-Mar-31 22:00N 35°04' W 121°19'510.5
2017-Mar-31 21:30N 34°59' W 121°15'510.5
2017-Mar-31 21:00N 34°55' W 121°12'510.2
2017-Mar-31 20:30N 34°50' W 121°09'510.4
2017-Mar-31 20:00N 34°46' W 121°06'510.2
2017-Mar-31 19:30N 34°41' W 121°03'510.0
2017-Mar-31 19:00N 34°37' W 120°60'5 9.5
2017-Mar-31 18:29N 34°33' W 120°56'4 9.1
2017-Mar-31 18:00N 34°29' W 120°54'4 8.4
2017-Mar-31 17:30N 34°26' W 120°50'4 8.4
2017-Mar-31 16:58N 34°25' W 120°45'5 9.5
2017-Mar-31 16:28N 34°23' W 120°39'510.8
2017-Mar-31 16:00N 34°22' W 120°34'5 9.5
2017-Mar-31 15:30N 34°21' W 120°28'5 9.6
2017-Mar-31 15:00N 34°20' W 120°22'9 9.3
2017-Mar-31 14:00N 34°17' W 120°12'5 9.0
2017-Mar-31 13:28N 34°16' W 120°06'4 9.5
2017-Mar-31 13:00N 34°15' W 120°01'5 9.8
2017-Mar-31 12:30N 34°13' W 119°55'5 9.4
2017-Mar-31 12:00N 34°12' W 119°50'5 9.5
2017-Mar-31 11:30N 34°11' W 119°44'5 9.3
2017-Mar-31 10:59N 34°09' W 119°38'6 9.2
2017-Mar-31 10:20N 34°08' W 119°31'3 9.3
2017-Mar-31 10:00N 34°07' W 119°28'5 9.2
2017-Mar-31 09:27N 34°06' W 119°22'4 9.1
2017-Mar-31 08:59N 34°05' W 119°17'7 8.8
2017-Mar-31 08:12N 34°01' W 119°10'2 8.7
2017-Mar-31 08:00N 34°00' W 119°08'5 9.4
2017-Mar-31 07:29N 33°58' W 119°03'5 9.5
2017-Mar-31 06:56N 33°55' W 118°57'6 9.8
2017-Mar-31 06:21N 33°53' W 118°51'4 9.2
2017-Mar-31 05:55N 33°51' W 118°47'4 9.7
2017-Mar-31 05:29N 33°49' W 118°43'510.1
2017-Mar-31 05:00N 33°46' W 118°37'410.1
2017-Mar-31 04:33N 33°44' W 118°33'10 9.7
2017-Mar-31 03:33N 33°39' W 118°23'8 8.2
2017-Mar-31 02:33N 33°39' W 118°13'7 1.8
2017-Mar-30 22:33N 33°46' W 118°13'0 0.0
2017-Mar-30 21:30N 33°46' W 118°13'0 0.0
2017-Mar-30 20:30N 33°46' W 118°13'0 0.0
2017-Mar-30 19:33N 33°46' W 118°13'0 0.0
2017-Mar-30 18:30N 33°46' W 118°13'0 0.0
2017-Mar-30 17:33N 33°46' W 118°13'0 0.0
2017-Mar-30 16:33N 33°46' W 118°13'0 0.0
2017-Mar-30 15:18N 33°46' W 118°13'0 0.0
2017-Mar-30 14:33N 33°46' W 118°13'0 0.1
2017-Mar-30 13:33N 33°46' W 118°13'3 3.3
2017-Mar-30 12:34N 33°44' W 118°11'7 7.2
2017-Mar-30 11:33N 33°37' W 118°14'6 6.4
2017-Mar-30 10:33N 33°37' W 118°22'7 7.0
2017-Mar-30 09:33N 33°40' W 118°29'8 7.8
2017-Mar-30 08:33N 33°44' W 118°37'9 9.1
2017-Mar-30 07:33N 33°49' W 118°47'9 8.9
2017-Mar-30 06:33N 33°53' W 118°56'9 9.0
2017-Mar-30 05:33N 33°57' W 119°06'9 9.3
2017-Mar-30 04:33N 34°02' W 119°15'9 9.6
2017-Mar-30 03:33N 34°05' W 119°26'9 9.4
2017-Mar-30 02:33N 34°07' W 119°37'9 9.3
2017-Mar-30 01:33N 34°10' W 119°48'10 9.7
2017-Mar-30 00:31N 34°12' W 119°60'10 9.7
2017-Mar-29 23:31N 34°15' W 120°11'8 8.8
2017-Mar-29 22:33N 34°18' W 120°21'9 8.9
2017-Mar-29 21:33N 34°20' W 120°31'1211.5
2017-Mar-29 20:33N 34°23' W 120°45'1312.4
2017-Mar-29 19:33N 34°24' W 120°60'1312.8
2017-Mar-29 18:33N 34°21' W 121°15'6 5.6
2017-Mar-29 17:33N 34°20' W 121°21'1 1.3
2017-Mar-29 16:33N 34°21' W 121°23'2 1.8
2017-Mar-29 15:33N 34°22' W 121°24'4 3.6
2017-Mar-29 14:33N 34°24' W 121°28'1211.3
2017-Mar-29 13:28N 34°25' W 121°43'1111.8
2017-Mar-29 12:33N 34°25' W 121°56'1211.9
2017-Mar-29 11:33N 34°25' W 122°10'4711.9
2017-Mar-29 07:33N 34°25' W 123°08'1212.3
2017-Mar-29 06:33N 34°25' W 123°23'1212.5
2017-Mar-29 05:33N 34°25' W 123°38'1312.8
2017-Mar-29 04:33N 34°26' W 123°53'1312.9
2017-Mar-29 03:33N 34°28' W 124°09'1312.6
2017-Mar-29 02:33N 34°30' W 124°24'1312.5
2017-Mar-29 01:33N 34°32' W 124°39'1312.7
2017-Mar-29 00:33N 34°34' W 124°54'1312.8
2017-Mar-28 23:33N 34°37' W 125°09'1313.0
2017-Mar-28 22:33N 34°39' W 125°25'1412.7
2017-Mar-28 21:26N 34°41' W 125°42'1112.5
2017-Mar-28 20:33N 34°43' W 125°55'1312.9
2017-Mar-28 19:33N 34°45' W 126°11'1414.1
2017-Mar-28 18:33N 34°47' W 126°28'1514.2
2017-Mar-28 17:31N 34°50' W 126°45'  

Dump ship's entire track history